KPZQ METAR Reports


Rogers City, Presque Isle County Airport, MI, United States (KPZQ) 45-24-25N 083-48-46W
May 25, 2022 - 02:55 PM EDT / 2022.05.25 1855 UTC
Wind: from the E (100 degrees) at 12 MPH (10 KT) gusting to 20 MPH (17 KT):0
Visibility: 10 mile(s):0
Sky conditions: overcast
Weather: light rain
Temperature: 54.5 F (12.5 C)
Dew Point: 42.4 F (5.8 C)
Relative Humidity: 63%
Pressure (altimeter): 30.18 in. Hg (1022 hPa)
ob: KPZQ 251855Z AUTO 10010G17KT 10SM -RA OVC090 13/06 A3018 RMK AO2 T01250058
cycle: 19

 

Rogers City METAR Meteogram

Weather Chart

Nearby METAR Reports

KPZQ - Rogers City, Michigan, USA
Distance from station: SSW 1mi, 2km
Updated: Wed, 25-May-2022 2:35pm EDT
NOT Current
Overcast
Overcast
 Wind from E
Wind: E 20 mph , 31 km/h, Gust: 25 mph , 41 km/h
Temperature: 55°F , 13°C
Dew Point: 41°F , 5°C
Humidity: 59%
Barometer: 30.19 inHg , 1022.4 hPa
Clouds: Overcast
Visibility: 10 miles , 16 km
Cloud details: Overcast 9000 ft
2022/05/25 18:35 KPZQ 251835Z AUTO 10017G22KT 10SM OVC090 13/05 A3019 RMK AO2 T01250053
KAPN - Alpena, Michigan, USA
Distance from station: SSE 27mi, 43km
Updated: Wed, 25-May-2022 2:54pm EDT
Light rain, Overcast
Light rain, Overcast
 Wind from E
Wind: E 12 mph , 19 km/h
Temperature: 55°F , 13°C
Dew Point: 45°F , 7°C
Humidity: 67%
Barometer: 30.16 inHg , 1021.3 hPa
Summary: Light rain
Clouds: Overcast
Visibility: 10 miles , 16 km
Cloud details: Overcast 10000 ft
2022/05/25 18:54 KAPN 251854Z AUTO 10010KT 10SM -RA OVC100 13/07 A3016 RMK AO2 RAB35 SLP218 P0000 T01280072
 
KSLH - Cheboygan, Michigan, USA
Distance from station: WNW 38mi, 61km
Updated: Wed, 25-May-2022 2:55pm EDT
Overcast
Overcast
 Wind from E
Wind: E 9 mph , 15 km/h
Temperature: 55°F , 13°C
Dew Point: 43°F , 6°C
Humidity: 63%
Barometer: 30.14 inHg , 1020.7 hPa
Clouds: Overcast
Visibility: 10 miles , 16 km
Cloud details: Overcast 9500 ft
2022/05/25 18:55 KSLH 251855Z AUTO 08008KT 10SM OVC095 13/06 A3014 RMK AO2
KDRM - Drummond Is, Michigan, USA
Distance from station: N 40mi, 65km
Updated: Wed, 25-May-2022 2:55pm EDT
Overcast
Overcast
 Wind from ENE
Wind: ENE 6 mph , 9 km/h
Temperature: 57°F , 14°C
Dew Point: 41°F , 5°C
Humidity: 55%
Barometer: 30.18 inHg , 1022 hPa
Clouds: Overcast
Visibility: 10 miles , 16 km
Cloud details: Overcast 9000 ft
2022/05/25 18:55 KDRM 251855Z AUTO 07005KT 10SM OVC090 14/05 A3018 RMK AO2 T01400050
 
KPLN - Pellston, Michigan, USA
Distance from station: WNW 49mi, 79km
Updated: Wed, 25-May-2022 2:54pm EDT
Overcast
Overcast
 Wind from E
Wind: E 17 mph , 28 km/h, Gust: 24 mph , 39 km/h
Temperature: 57°F , 14°C
Dew Point: 43°F , 6°C
Humidity: 59%
Barometer: 30.13 inHg , 1020.3 hPa
Clouds: Overcast
Visibility: 10 miles , 16 km
Cloud details: Overcast 8000 ft
2022/05/25 18:54 KPLN 251854Z AUTO 08015G21KT 10SM OVC080 14/06 A3013 RMK AO2 SLP206 T01440061
KMCD - Mackinac Island, Michigan, USA
Distance from station: NW 50mi, 80km
Updated: Wed, 25-May-2022 2:55pm EDT
Overcast
Overcast
 Wind from E
Wind: E 12 mph , 19 km/h, Gust: 22 mph , 35 km/h
Temperature: 48°F , 9°C
Wind Chill: 43°F , 6°C
Dew Point: 41°F , 5°C
Humidity: 76%
Barometer: 30.17 inHg , 1021.7 hPa
Clouds: Overcast
Visibility: 10 miles , 16 km
Cloud details: Overcast 10000 ft
2022/05/25 18:55 KMCD 251855Z AUTO 09010G19KT 060V120 10SM OVC100 09/05 A3017 RMK AO2 T00870045